Time,TemperatureF,DewpointF,PressureIn,WindDirection,WindDirectionDegrees,WindSpeedMPH,WindSpeedGustMPH,Humidity,HourlyPrecipIn,Conditions,Clouds,dailyrainin,SoftwareType,DateUTC
2013-03-03 00:01:00,50.4,31.5,30.24,East,101,1.0,1.0,48,0.00,,,0.00,meteohub,2013-03-03 06:01:00,
2013-03-03 00:06:00,50.7,31.8,30.24,ESE,105,1.0,2.0,48,0.00,,,0.00,meteohub,2013-03-03 06:06:00,
2013-03-03 00:11:00,50.7,31.8,30.24,ESE,105,1.0,2.0,48,0.00,,,0.00,meteohub,2013-03-03 06:11:00,
2013-03-03 00:16:00,50.7,31.8,30.25,ESE,105,1.0,2.0,48,0.00,,,0.00,meteohub,2013-03-03 06:16:00,
2013-03-03 00:21:00,50.5,31.6,30.24,ESE,102,2.0,2.0,48,0.00,,,0.00,meteohub,2013-03-03 06:21:00,
2013-03-03 00:26:00,50.5,31.6,30.25,ESE,103,1.0,2.0,48,0.00,,,0.00,meteohub,2013-03-03 06:26:00,
2013-03-03 00:31:00,50.4,32.0,30.25,SSE,164,1.0,2.0,49,0.00,,,0.00,meteohub,2013-03-03 06:31:00,
2013-03-03 00:36:00,49.8,31.5,30.25,South,187,0.0,2.0,49,0.00,,,0.00,meteohub,2013-03-03 06:36:00,
2013-03-03 00:41:00,49.3,31.5,30.24,South,187,0.0,2.0,50,0.00,,,0.00,meteohub,2013-03-03 06:41:00,
2013-03-03 00:46:00,48.9,31.1,30.24,South,188,1.0,2.0,50,0.00,,,0.00,meteohub,2013-03-03 06:46:00,
2013-03-03 00:51:00,48.7,30.9,30.24,SSW,208,1.0,2.0,50,0.00,,,0.00,meteohub,2013-03-03 06:51:00,
2013-03-03 00:56:00,48.4,31.1,30.25,SW,216,1.0,2.0,51,0.00,,,0.00,meteohub,2013-03-03 06:56:00,
2013-03-03 01:01:00,47.8,31.1,30.25,SW,217,0.0,2.0,52,0.00,,,0.00,meteohub,2013-03-03 07:01:00,
2013-03-03 01:06:00,47.1,29.8,30.25,West,278,0.0,2.0,51,0.00,,,0.00,meteohub,2013-03-03 07:06:00,
2013-03-03 01:11:00,46.8,30.0,30.25,West,278,1.0,2.0,52,0.00,,,0.00,meteohub,2013-03-03 07:11:00,
2013-03-03 01:16:00,46.8,30.6,30.25,West,278,0.0,2.0,53,0.00,,,0.00,meteohub,2013-03-03 07:16:00,
2013-03-03 01:21:00,46.8,30.6,30.25,West,277,0.0,1.0,53,0.00,,,0.00,meteohub,2013-03-03 07:21:00,
2013-03-03 01:26:00,46.8,30.6,30.25,West,278,0.0,1.0,53,0.00,,,0.00,meteohub,2013-03-03 07:26:00,
2013-03-03 01:31:00,47.1,31.3,30.25,West,278,0.0,1.0,54,0.00,,,0.00,meteohub,2013-03-03 07:31:00,
2013-03-03 01:36:00,47.3,31.1,30.25,West,278,0.0,1.0,53,0.00,,,0.00,meteohub,2013-03-03 07:36:00,
2013-03-03 01:41:00,46.9,30.7,30.25,WNW,288,1.0,1.0,53,0.00,,,0.00,meteohub,2013-03-03 07:41:00,
2013-03-03 01:46:00,46.8,30.6,30.24,WSW,240,1.0,1.0,53,0.00,,,0.00,meteohub,2013-03-03 07:46:00,
2013-03-03 01:51:00,46.6,30.4,30.24,WSW,245,1.0,2.0,53,0.00,,,0.00,meteohub,2013-03-03 07:51:00,
2013-03-03 01:56:00,46.8,30.9,30.24,WSW,246,0.0,2.0,54,0.00,,,0.00,meteohub,2013-03-03 07:56:00,
2013-03-03 02:01:00,46.8,30.6,30.24,SW,236,0.0,2.0,53,0.00,,,0.00,meteohub,2013-03-03 08:01:00,
2013-03-03 02:06:00,46.4,29.7,30.24,West,260,1.0,1.0,52,0.00,,,0.00,meteohub,2013-03-03 08:06:00,
2013-03-03 02:11:00,46.0,29.8,30.24,SSW,207,0.0,2.0,53,0.00,,,0.00,meteohub,2013-03-03 08:11:00,
2013-03-03 02:16:00,45.9,30.2,30.24,WSW,252,2.0,2.0,54,0.00,,,0.00,meteohub,2013-03-03 08:16:00,
2013-03-03 02:21:00,45.9,30.2,30.24,West,264,1.0,3.0,54,0.00,,,0.00,meteohub,2013-03-03 08:21:00,
2013-03-03 02:26:00,46.0,30.4,30.24,WSW,252,0.0,3.0,54,0.00,,,0.00,meteohub,2013-03-03 08:26:00,
2013-03-03 02:31:00,46.0,29.8,30.24,WSW,253,1.0,3.0,53,0.00,,,0.00,meteohub,2013-03-03 08:31:00,
2013-03-03 02:36:00,45.9,29.3,30.23,West,270,1.0,2.0,52,0.00,,,0.00,meteohub,2013-03-03 08:36:00,
2013-03-03 02:41:00,45.7,29.1,30.23,WSW,245,2.0,3.0,52,0.00,,,0.00,meteohub,2013-03-03 08:41:00,
2013-03-03 02:46:00,45.3,29.1,30.23,WSW,239,2.0,3.0,53,0.00,,,0.00,meteohub,2013-03-03 08:46:00,
2013-03-03 02:51:00,45.0,28.9,30.23,NW,307,0.0,3.0,53,0.00,,,0.00,meteohub,2013-03-03 08:51:00,
2013-03-03 02:56:00,44.8,29.1,30.22,NNE,15,0.0,3.0,54,0.00,,,0.00,meteohub,2013-03-03 08:56:00,
2013-03-03 03:01:00,44.4,29.7,30.22,WNW,285,0.0,3.0,56,0.00,,,0.00,meteohub,2013-03-03 09:01:00,
2013-03-03 03:06:00,44.4,29.7,30.22,WNW,300,0.0,2.0,56,0.00,,,0.00,meteohub,2013-03-03 09:06:00,
2013-03-03 03:11:00,44.4,30.6,30.22,WSW,240,2.0,2.0,58,0.00,,,0.00,meteohub,2013-03-03 09:11:00,
2013-03-03 03:16:00,45.0,31.5,30.22,WSW,243,0.0,2.0,59,0.00,,,0.00,meteohub,2013-03-03 09:16:00,
2013-03-03 03:21:00,45.3,31.8,30.22,West,271,0.0,3.0,59,0.00,,,0.00,meteohub,2013-03-03 09:21:00,
2013-03-03 03:26:00,45.3,31.8,30.22,WNW,283,0.0,3.0,59,0.00,,,0.00,meteohub,2013-03-03 09:26:00,
2013-03-03 03:31:00,45.3,31.8,30.22,West,280,0.0,3.0,59,0.00,,,0.00,meteohub,2013-03-03 09:31:00,
2013-03-03 03:36:00,45.1,32.0,30.21,West,262,0.0,3.0,60,0.00,,,0.00,meteohub,2013-03-03 09:36:00,
2013-03-03 03:41:00,45.0,32.0,30.21,WNW,292,1.0,3.0,60,0.00,,,0.00,meteohub,2013-03-03 09:41:00,
2013-03-03 03:46:00,44.8,32.2,30.21,NW,304,0.0,2.0,61,0.00,,,0.00,meteohub,2013-03-03 09:46:00,
2013-03-03 03:51:00,45.0,32.4,30.21,WNW,287,1.0,2.0,61,0.00,,,0.00,meteohub,2013-03-03 09:51:00,
2013-03-03 03:56:00,44.8,32.2,30.21,NNW,335,0.0,2.0,61,0.00,,,0.00,meteohub,2013-03-03 09:56:00,
2013-03-03 04:01:00,44.8,31.8,30.21,West,266,0.0,2.0,60,0.00,,,0.00,meteohub,2013-03-03 10:01:00,
2013-03-03 04:06:00,44.6,31.6,30.21,SW,231,1.0,2.0,60,0.00,,,0.00,meteohub,2013-03-03 10:06:00,
2013-03-03 04:11:00,44.8,32.2,30.22,WSW,243,1.0,4.0,61,0.00,,,0.00,meteohub,2013-03-03 10:11:00,
2013-03-03 04:16:00,45.0,32.4,30.21,WSW,245,1.0,4.0,61,0.00,,,0.00,meteohub,2013-03-03 10:16:00,
2013-03-03 04:21:00,45.1,32.9,30.21,West,259,2.0,4.0,62,0.00,,,0.00,meteohub,2013-03-03 10:21:00,
2013-03-03 04:26:00,45.7,33.1,30.21,ESE,102,1.0,4.0,61,0.00,,,0.00,meteohub,2013-03-03 10:26:00,
2013-03-03 04:31:00,45.5,32.9,30.21,WSW,243,1.0,4.0,61,0.00,,,0.00,meteohub,2013-03-03 10:31:00,
2013-03-03 04:36:00,45.5,33.3,30.21,SW,233,2.0,4.0,62,0.00,,,0.00,meteohub,2013-03-03 10:36:00,
2013-03-03 04:41:00,45.7,33.4,30.21,WNW,290,0.0,4.0,62,0.00,,,0.00,meteohub,2013-03-03 10:41:00,
2013-03-03 04:46:00,45.3,33.1,30.21,West,270,0.0,4.0,62,0.00,,,0.00,meteohub,2013-03-03 10:46:00,
2013-03-03 04:51:00,45.1,32.9,30.21,WNW,302,1.0,4.0,62,0.00,,,0.00,meteohub,2013-03-03 10:51:00,
2013-03-03 04:56:00,45.0,32.7,30.20,SSW,193,0.0,2.0,62,0.00,,,0.00,meteohub,2013-03-03 10:56:00,
2013-03-03 05:02:00,44.8,32.9,30.20,West,261,0.0,2.0,63,0.00,,,0.00,meteohub,2013-03-03 11:02:00,
2013-03-03 05:07:00,44.4,32.2,30.20,NE,49,1.0,2.0,62,0.00,,,0.00,meteohub,2013-03-03 11:07:00,
2013-03-03 05:12:00,44.2,32.4,30.20,WSW,250,0.0,2.0,63,0.00,,,0.00,meteohub,2013-03-03 11:12:00,
2013-03-03 05:17:00,44.1,32.4,30.20,West,262,0.0,2.0,63,0.00,,,0.00,meteohub,2013-03-03 11:17:00,
2013-03-03 05:22:00,43.9,32.2,30.20,South,170,1.0,3.0,63,0.00,,,0.00,meteohub,2013-03-03 11:22:00,
2013-03-03 05:27:00,43.9,32.2,30.20,West,262,1.0,3.0,63,0.00,,,0.00,meteohub,2013-03-03 11:27:00,
2013-03-03 05:32:00,43.7,32.0,30.20,WNW,293,1.0,3.0,63,0.00,,,0.00,meteohub,2013-03-03 11:32:00,
2013-03-03 05:37:00,43.5,32.2,30.20,South,179,0.0,2.0,64,0.00,,,0.00,meteohub,2013-03-03 11:37:00,
2013-03-03 05:42:00,43.5,32.2,30.21,WNW,298,0.0,2.0,64,0.00,,,0.00,meteohub,2013-03-03 11:42:00,
2013-03-03 05:47:00,43.5,32.5,30.20,West,277,0.0,3.0,65,0.00,,,0.00,meteohub,2013-03-03 11:47:00,
2013-03-03 05:52:00,43.5,32.5,30.21,ESE,122,0.0,3.0,65,0.00,,,0.00,meteohub,2013-03-03 11:52:00,
2013-03-03 05:57:00,43.5,32.5,30.21,SW,217,1.0,2.0,65,0.00,,,0.00,meteohub,2013-03-03 11:57:00,
2013-03-03 06:02:00,43.7,32.7,30.21,ESE,113,1.0,3.0,65,0.00,,,0.00,meteohub,2013-03-03 12:02:00,
2013-03-03 06:07:00,43.7,33.1,30.21,SSW,212,0.0,3.0,66,0.00,,,0.00,meteohub,2013-03-03 12:07:00,
2013-03-03 06:12:00,43.5,32.9,30.21,North,355,1.0,3.0,66,0.00,,,0.00,meteohub,2013-03-03 12:12:00,
2013-03-03 06:17:00,43.5,32.9,30.21,West,269,1.0,3.0,66,0.00,,,0.00,meteohub,2013-03-03 12:17:00,
2013-03-03 06:22:00,43.3,32.7,30.21,North,359,1.0,2.0,66,0.00,,,0.00,meteohub,2013-03-03 12:22:00,
2013-03-03 06:27:00,43.3,32.7,30.21,West,280,0.0,2.0,66,0.00,,,0.00,meteohub,2013-03-03 12:27:00,
2013-03-03 06:32:00,43.2,32.5,30.21,NW,307,1.0,4.0,66,0.00,,,0.00,meteohub,2013-03-03 12:32:00,
2013-03-03 06:37:00,42.8,32.2,30.21,West,263,1.0,4.0,66,0.00,,,0.00,meteohub,2013-03-03 12:37:00,
2013-03-03 06:42:00,42.4,32.2,30.21,West,259,2.0,4.0,67,0.00,,,0.00,meteohub,2013-03-03 12:42:00,
2013-03-03 06:47:00,42.4,32.2,30.21,SSW,211,0.0,2.0,67,0.00,,,0.00,meteohub,2013-03-03 12:47:00,
2013-03-03 06:52:00,42.3,32.5,30.21,WNW,287,2.0,2.0,68,0.00,,,0.00,meteohub,2013-03-03 12:52:00,
2013-03-03 06:57:00,42.6,33.1,30.21,West,263,1.0,2.0,69,0.00,,,0.00,meteohub,2013-03-03 12:57:00,
2013-03-03 07:02:00,43.0,33.1,30.21,North,359,1.0,2.0,68,0.00,,,0.00,meteohub,2013-03-03 13:02:00,
2013-03-03 07:07:00,43.3,33.4,30.21,WNW,288,1.0,2.0,68,0.00,,,0.00,meteohub,2013-03-03 13:07:00,
2013-03-03 07:12:00,44.1,34.2,30.21,SSE,167,2.0,4.0,68,0.00,,,0.00,meteohub,2013-03-03 13:12:00,
2013-03-03 07:17:00,44.8,34.5,30.21,NNE,23,1.0,4.0,67,0.00,,,0.00,meteohub,2013-03-03 13:17:00,
2013-03-03 07:22:00,45.3,34.7,30.22,SW,229,1.0,4.0,66,0.00,,,0.00,meteohub,2013-03-03 13:22:00,
2013-03-03 07:27:00,46.0,34.9,30.22,SW,232,1.0,3.0,65,0.00,,,0.00,meteohub,2013-03-03 13:27:00,
2013-03-03 07:32:00,46.4,35.2,30.22,NNE,19,1.0,3.0,65,0.00,,,0.00,meteohub,2013-03-03 13:32:00,
2013-03-03 07:37:00,46.8,35.2,30.22,SW,230,1.0,3.0,64,0.00,,,0.00,meteohub,2013-03-03 13:37:00,
2013-03-03 07:42:00,47.3,35.8,30.22,NE,43,2.0,3.0,64,0.00,,,0.00,meteohub,2013-03-03 13:42:00,
2013-03-03 07:47:00,48.0,36.5,30.22,SW,236,2.0,3.0,64,0.00,,,0.00,meteohub,2013-03-03 13:47:00,
2013-03-03 07:52:00,48.6,36.5,30.22,SE,126,2.0,4.0,63,0.00,,,0.00,meteohub,2013-03-03 13:52:00,
2013-03-03 07:57:00,49.3,36.9,30.22,NW,311,1.0,4.0,62,0.00,,,0.00,meteohub,2013-03-03 13:57:00,
2013-03-03 08:02:00,49.5,37.0,30.22,WSW,238,3.0,6.0,62,0.00,,,0.00,meteohub,2013-03-03 14:02:00,
2013-03-03 08:07:00,50.2,37.6,30.23,WSW,243,1.0,6.0,62,0.00,,,0.00,meteohub,2013-03-03 14:07:00,
2013-03-03 08:12:00,50.7,37.8,30.23,West,259,0.0,6.0,61,0.00,,,0.00,meteohub,2013-03-03 14:12:00,
2013-03-03 08:17:00,51.6,38.1,30.23,ESE,115,1.0,4.0,60,0.00,,,0.00,meteohub,2013-03-03 14:17:00,
2013-03-03 08:22:00,52.3,38.8,30.23,West,262,3.0,5.0,60,0.00,,,0.00,meteohub,2013-03-03 14:22:00,
2013-03-03 08:27:00,53.1,39.2,30.23,SW,217,2.0,5.0,59,0.00,,,0.00,meteohub,2013-03-03 14:27:00,
2013-03-03 08:32:00,54.0,39.6,30.23,WSW,243,1.0,4.0,58,0.00,,,0.00,meteohub,2013-03-03 14:32:00,
2013-03-03 08:37:00,54.9,39.9,30.23,SSW,194,3.0,4.0,57,0.00,,,0.00,meteohub,2013-03-03 14:37:00,
2013-03-03 08:42:00,55.6,40.6,30.23,SSW,201,2.0,5.0,57,0.00,,,0.00,meteohub,2013-03-03 14:42:00,
2013-03-03 08:47:00,56.3,40.3,30.23,SSE,165,5.0,9.0,55,0.00,,,0.00,meteohub,2013-03-03 14:47:00,
2013-03-03 08:52:00,56.8,40.8,30.23,SW,219,2.0,9.0,55,0.00,,,0.00,meteohub,2013-03-03 14:52:00,
2013-03-03 08:57:00,57.6,41.5,30.23,SW,221,3.0,9.0,55,0.00,,,0.00,meteohub,2013-03-03 14:57:00,
2013-03-03 09:02:00,58.5,41.9,30.23,SW,236,8.0,9.0,54,0.00,,,0.00,meteohub,2013-03-03 15:02:00,
2013-03-03 09:07:00,59.4,42.3,30.23,SW,214,6.0,9.0,53,0.00,,,0.00,meteohub,2013-03-03 15:07:00,
2013-03-03 09:12:00,59.9,42.3,30.23,South,191,9.0,12.0,52,0.00,,,0.00,meteohub,2013-03-03 15:12:00,
2013-03-03 09:17:00,60.4,42.3,30.23,SSW,207,4.0,12.0,51,0.00,,,0.00,meteohub,2013-03-03 15:17:00,
2013-03-03 09:23:00,61.0,42.8,30.22,South,190,7.0,12.0,51,0.00,,,0.00,meteohub,2013-03-03 15:23:00,
2013-03-03 09:28:00,61.2,42.4,30.23,South,183,5.0,13.0,50,0.00,,,0.00,meteohub,2013-03-03 15:28:00,
2013-03-03 09:33:00,61.7,43.3,30.22,SSW,203,9.0,13.0,51,0.00,,,0.00,meteohub,2013-03-03 15:33:00,
2013-03-03 09:38:00,62.4,43.5,30.22,SSW,193,11.0,13.0,50,0.00,,,0.00,meteohub,2013-03-03 15:38:00,
2013-03-03 09:43:00,63.0,43.5,30.22,SSW,195,11.0,14.0,49,0.00,,,0.00,meteohub,2013-03-03 15:43:00,
2013-03-03 09:48:00,63.5,44.1,30.22,SSE,155,13.0,14.0,49,0.00,,,0.00,meteohub,2013-03-03 15:48:00,
2013-03-03 09:53:00,63.7,43.7,30.22,SSE,160,13.0,15.0,48,0.00,,,0.00,meteohub,2013-03-03 15:53:00,
2013-03-03 09:58:00,63.9,43.7,30.22,SSE,157,4.0,15.0,48,0.00,,,0.00,meteohub,2013-03-03 15:58:00,
2013-03-03 10:03:00,64.4,43.7,30.21,SSE,159,10.0,15.0,47,0.00,,,0.00,meteohub,2013-03-03 16:03:00,
2013-03-03 10:08:00,64.9,44.2,30.21,South,191,9.0,18.0,47,0.00,,,0.00,meteohub,2013-03-03 16:08:00,
2013-03-03 10:13:00,65.5,44.2,30.21,SE,134,11.0,18.0,46,0.00,,,0.00,meteohub,2013-03-03 16:13:00,
2013-03-03 10:18:00,65.7,43.7,30.21,South,169,10.0,18.0,45,0.00,,,0.00,meteohub,2013-03-03 16:18:00,
2013-03-03 10:23:00,65.7,43.2,30.20,SW,214,12.0,19.0,44,0.00,,,0.00,meteohub,2013-03-03 16:23:00,
2013-03-03 10:28:00,66.6,43.3,30.20,SE,143,14.0,19.0,43,0.00,,,0.00,meteohub,2013-03-03 16:28:00,
2013-03-03 10:33:00,66.6,42.8,30.19,South,181,13.0,18.0,42,0.00,,,0.00,meteohub,2013-03-03 16:33:00,
2013-03-03 10:38:00,66.9,41.9,30.19,SSE,155,10.0,18.0,40,0.00,,,0.00,meteohub,2013-03-03 16:38:00,
2013-03-03 10:43:00,67.8,42.6,30.19,SSE,165,12.0,22.0,40,0.00,,,0.00,meteohub,2013-03-03 16:43:00,
2013-03-03 10:48:00,68.2,42.3,30.19,South,184,8.0,22.0,39,0.00,,,0.00,meteohub,2013-03-03 16:48:00,
2013-03-03 10:53:00,68.4,41.7,30.19,SSE,160,10.0,22.0,38,0.00,,,0.00,meteohub,2013-03-03 16:53:00,
2013-03-03 10:58:00,68.4,41.0,30.19,SSE,167,8.0,18.0,37,0.00,,,0.00,meteohub,2013-03-03 16:58:00,
2013-03-03 11:03:00,68.2,41.5,30.19,South,181,12.0,19.0,38,0.00,,,0.00,meteohub,2013-03-03 17:03:00,
2013-03-03 11:08:00,68.5,40.5,30.19,SSW,207,13.0,22.0,36,0.00,,,0.00,meteohub,2013-03-03 17:08:00,
2013-03-03 11:13:00,69.1,41.0,30.18,SSW,210,10.0,22.0,36,0.00,,,0.00,meteohub,2013-03-03 17:13:00,
2013-03-03 11:18:00,69.6,41.5,30.17,SSW,205,11.0,21.0,36,0.00,,,0.00,meteohub,2013-03-03 17:18:00,
2013-03-03 11:23:00,70.5,42.3,30.17,SSW,195,8.0,16.0,36,0.00,,,0.00,meteohub,2013-03-03 17:23:00,
2013-03-03 11:28:00,70.2,41.2,30.17,SSE,167,13.0,16.0,35,0.00,,,0.00,meteohub,2013-03-03 17:28:00,
2013-03-03 11:33:00,70.3,41.4,30.17,South,172,5.0,16.0,35,0.00,,,0.00,meteohub,2013-03-03 17:33:00,
2013-03-03 11:38:00,70.3,42.1,30.17,South,183,11.0,18.0,36,0.00,,,0.00,meteohub,2013-03-03 17:38:00,
2013-03-03 11:43:00,71.1,41.4,30.17,SSE,159,10.0,18.0,34,0.00,,,0.00,meteohub,2013-03-03 17:43:00,
2013-03-03 11:48:00,71.1,41.4,30.16,South,169,11.0,18.0,34,0.00,,,0.00,meteohub,2013-03-03 17:48:00,
2013-03-03 11:53:00,71.8,41.2,30.16,SE,130,11.0,18.0,33,0.00,,,0.00,meteohub,2013-03-03 17:53:00,
2013-03-03 11:58:00,71.8,40.3,30.15,SW,225,8.0,18.0,32,0.00,,,0.00,meteohub,2013-03-03 17:58:00,
2013-03-03 12:03:00,72.3,40.8,30.15,SSW,204,7.0,16.0,32,0.00,,,0.00,meteohub,2013-03-03 18:03:00,
2013-03-03 12:08:00,73.0,40.6,30.14,SE,124,12.0,16.0,31,0.00,,,0.00,meteohub,2013-03-03 18:08:00,
2013-03-03 12:13:00,72.7,39.4,30.14,West,266,3.0,16.0,30,0.00,,,0.00,meteohub,2013-03-03 18:13:00,
2013-03-03 12:18:00,72.9,40.5,30.13,SSE,163,9.0,17.0,31,0.00,,,0.00,meteohub,2013-03-03 18:18:00,
2013-03-03 12:23:00,72.9,39.6,30.13,SW,216,7.0,17.0,30,0.00,,,0.00,meteohub,2013-03-03 18:23:00,
2013-03-03 12:28:00,73.4,40.1,30.13,SE,133,13.0,16.0,30,0.00,,,0.00,meteohub,2013-03-03 18:28:00,
2013-03-03 12:33:00,73.2,39.0,30.12,SSW,209,4.0,16.0,29,0.00,,,0.00,meteohub,2013-03-03 18:33:00,
2013-03-03 12:39:00,73.8,39.6,30.12,SE,135,7.0,18.0,29,0.00,,,0.00,meteohub,2013-03-03 18:39:00,
2013-03-03 12:44:00,74.1,39.0,30.12,SE,143,10.0,18.0,28,0.00,,,0.00,meteohub,2013-03-03 18:44:00,
2013-03-03 12:49:00,73.9,37.8,30.11,SE,130,13.0,18.0,27,0.00,,,0.00,meteohub,2013-03-03 18:49:00,
2013-03-03 12:54:00,73.6,37.6,30.11,ESE,115,11.0,18.0,27,0.00,,,0.00,meteohub,2013-03-03 18:54:00,
2013-03-03 12:59:00,73.9,37.8,30.11,SW,224,10.0,18.0,27,0.00,,,0.00,meteohub,2013-03-03 18:59:00,
2013-03-03 13:04:00,75.2,37.9,30.10,SSE,152,14.0,18.0,26,0.00,,,0.00,meteohub,2013-03-03 19:04:00,
2013-03-03 13:09:00,74.7,38.5,30.09,SSW,201,9.0,17.0,27,0.00,,,0.00,meteohub,2013-03-03 19:09:00,
2013-03-03 13:14:00,75.0,37.8,30.09,SSE,165,7.0,18.0,26,0.00,,,0.00,meteohub,2013-03-03 19:14:00,
2013-03-03 13:19:00,74.8,37.6,30.09,SSE,162,9.0,18.0,26,0.00,,,0.00,meteohub,2013-03-03 19:19:00,
2013-03-03 13:24:00,74.8,36.7,30.08,SSW,207,9.0,18.0,25,0.00,,,0.00,meteohub,2013-03-03 19:24:00,
2013-03-03 13:29:00,75.7,37.4,30.08,South,170,3.0,17.0,25,0.00,,,0.00,meteohub,2013-03-03 19:29:00,
2013-03-03 13:34:00,75.9,37.6,30.08,SSE,152,7.0,17.0,25,0.00,,,0.00,meteohub,2013-03-03 19:34:00,
2013-03-03 13:39:00,76.6,38.1,30.07,SE,138,13.0,17.0,25,0.00,,,0.00,meteohub,2013-03-03 19:39:00,
2013-03-03 13:44:00,76.3,38.8,30.07,SSW,195,10.0,17.0,26,0.00,,,0.00,meteohub,2013-03-03 19:44:00,
2013-03-03 13:49:00,76.1,37.8,30.06,SE,127,12.0,19.0,25,0.00,,,0.00,meteohub,2013-03-03 19:49:00,
2013-03-03 13:54:00,75.7,40.3,30.06,SW,228,13.0,19.0,28,0.00,,,0.00,meteohub,2013-03-03 19:54:00,
2013-03-03 13:59:00,75.9,40.5,30.06,ESE,115,13.0,18.0,28,0.00,,,0.00,meteohub,2013-03-03 19:59:00,
2013-03-03 14:04:00,75.7,43.0,30.05,SSW,198,7.0,19.0,31,0.00,,,0.00,meteohub,2013-03-03 20:04:00,
2013-03-03 14:09:00,76.5,43.5,30.05,SE,143,16.0,19.0,31,0.00,,,0.00,meteohub,2013-03-03 20:09:00,
2013-03-03 14:14:00,75.9,43.2,30.05,SE,146,12.0,19.0,31,0.00,,,0.00,meteohub,2013-03-03 20:14:00,
2013-03-03 14:19:00,75.7,43.7,30.05,SE,129,11.0,20.0,32,0.00,,,0.00,meteohub,2013-03-03 20:19:00,
2013-03-03 14:24:00,75.9,43.2,30.05,SE,134,9.0,20.0,31,0.00,,,0.00,meteohub,2013-03-03 20:24:00,
2013-03-03 14:29:00,75.4,43.5,30.04,ESE,115,9.0,20.0,32,0.00,,,0.00,meteohub,2013-03-03 20:29:00,
2013-03-03 14:34:00,75.4,43.5,30.04,SSE,166,16.0,20.0,32,0.00,,,0.00,meteohub,2013-03-03 20:34:00,
2013-03-03 14:39:00,75.4,44.2,30.04,SE,134,14.0,20.0,33,0.00,,,0.00,meteohub,2013-03-03 20:39:00,
2013-03-03 14:45:00,75.4,43.5,30.04,SE,135,11.0,20.0,32,0.00,,,0.00,meteohub,2013-03-03 20:45:00,
2013-03-03 14:50:00,75.6,44.4,30.03,South,176,17.0,22.0,33,0.00,,,0.00,meteohub,2013-03-03 20:50:00,
2013-03-03 14:55:00,75.6,44.4,30.03,SE,136,10.0,21.0,33,0.00,,,0.00,meteohub,2013-03-03 20:55:00,
2013-03-03 15:00:00,75.4,45.1,30.03,SE,142,13.0,21.0,34,0.00,,,0.00,meteohub,2013-03-03 21:00:00,
2013-03-03 15:05:00,75.4,44.2,30.03,SE,130,17.0,21.0,33,0.00,,,0.00,meteohub,2013-03-03 21:05:00,
2013-03-03 15:10:00,75.2,45.7,30.02,SSE,150,12.0,21.0,35,0.00,,,0.00,meteohub,2013-03-03 21:10:00,
2013-03-03 15:15:00,75.0,45.5,30.02,SE,136,12.0,26.0,35,0.00,,,0.00,meteohub,2013-03-03 21:15:00,
2013-03-03 15:20:00,75.0,45.5,30.02,South,181,14.0,26.0,35,0.00,,,0.00,meteohub,2013-03-03 21:20:00,
2013-03-03 15:25:00,75.0,45.5,30.02,SE,127,10.0,26.0,35,0.00,,,0.00,meteohub,2013-03-03 21:25:00,
2013-03-03 15:30:00,75.2,47.1,30.02,SE,134,17.0,20.0,37,0.00,,,0.00,meteohub,2013-03-03 21:30:00,
2013-03-03 15:35:00,74.8,47.5,30.02,SE,142,17.0,24.0,38,0.00,,,0.00,meteohub,2013-03-03 21:35:00,
2013-03-03 15:40:00,74.8,46.8,30.02,SSE,163,15.0,24.0,37,0.00,,,0.00,meteohub,2013-03-03 21:40:00,
2013-03-03 15:45:00,74.5,47.1,30.02,ESE,118,13.0,29.0,38,0.00,,,0.00,meteohub,2013-03-03 21:45:00,
2013-03-03 15:50:00,74.5,47.1,30.01,SE,126,15.0,29.0,38,0.00,,,0.00,meteohub,2013-03-03 21:50:00,
2013-03-03 15:55:00,74.3,47.7,30.01,ESE,122,11.0,29.0,39,0.00,,,0.00,meteohub,2013-03-03 21:55:00,
2013-03-03 16:00:00,74.5,47.1,30.01,SE,133,11.0,22.0,38,0.00,,,0.00,meteohub,2013-03-03 22:00:00,
2013-03-03 16:06:00,74.1,47.7,30.01,SE,133,16.0,22.0,39,0.00,,,0.00,meteohub,2013-03-03 22:06:00,
2013-03-03 16:11:00,73.9,47.5,30.01,SE,136,13.0,24.0,39,0.00,,,0.00,meteohub,2013-03-03 22:11:00,
2013-03-03 16:16:00,73.9,48.0,30.00,SE,137,14.0,24.0,40,0.00,,,0.00,meteohub,2013-03-03 22:16:00,
2013-03-03 16:21:00,73.9,48.0,30.00,SE,143,16.0,24.0,40,0.00,,,0.00,meteohub,2013-03-03 22:21:00,
2013-03-03 16:26:00,73.8,47.3,30.00,ESE,118,17.0,23.0,39,0.00,,,0.00,meteohub,2013-03-03 22:26:00,
2013-03-03 16:31:00,73.2,48.0,30.00,SE,128,18.0,23.0,41,0.00,,,0.00,meteohub,2013-03-03 22:31:00,
2013-03-03 16:36:00,73.2,48.0,30.00,ESE,118,20.0,24.0,41,0.00,,,0.00,meteohub,2013-03-03 22:36:00,
2013-03-03 16:41:00,72.9,47.8,29.99,SE,134,17.0,26.0,41,0.00,,,0.00,meteohub,2013-03-03 22:41:00,
2013-03-03 16:46:00,72.3,49.1,29.99,ESE,117,26.0,26.0,44,0.00,,,0.00,meteohub,2013-03-03 22:46:00,
2013-03-03 16:51:00,72.0,48.2,29.99,ESE,123,17.0,26.0,43,0.00,,,0.00,meteohub,2013-03-03 22:51:00,
2013-03-03 16:56:00,71.8,48.7,30.00,SE,128,23.0,26.0,44,0.00,,,0.00,meteohub,2013-03-03 22:56:00,
2013-03-03 17:01:00,71.6,48.6,29.99,ESE,121,17.0,26.0,44,0.00,,,0.00,meteohub,2013-03-03 23:01:00,
2013-03-03 17:06:00,71.4,48.9,29.99,SSE,150,11.0,24.0,45,0.00,,,0.00,meteohub,2013-03-03 23:06:00,
2013-03-03 17:11:00,70.9,48.6,29.99,SE,129,13.0,24.0,45,0.00,,,0.00,meteohub,2013-03-03 23:11:00,
2013-03-03 17:16:00,70.5,48.7,29.99,SE,130,16.0,23.0,46,0.00,,,0.00,meteohub,2013-03-03 23:16:00,
2013-03-03 17:21:00,70.3,48.0,29.99,SE,134,14.0,23.0,45,0.00,,,0.00,meteohub,2013-03-03 23:21:00,
2013-03-03 17:26:00,70.3,48.0,29.99,SE,146,11.0,23.0,45,0.00,,,0.00,meteohub,2013-03-03 23:26:00,
2013-03-03 17:31:00,70.0,48.2,29.99,SE,132,15.0,23.0,46,0.00,,,0.00,meteohub,2013-03-03 23:31:00,
2013-03-03 17:36:00,69.6,47.3,29.99,SE,124,16.0,23.0,45,0.00,,,0.00,meteohub,2013-03-03 23:36:00,
2013-03-03 17:41:00,69.3,47.7,29.99,SE,130,18.0,24.0,46,0.00,,,0.00,meteohub,2013-03-03 23:41:00,
2013-03-03 17:46:00,68.9,47.3,29.99,SE,132,20.0,24.0,46,0.00,,,0.00,meteohub,2013-03-03 23:46:00,
2013-03-03 17:51:00,68.7,47.1,29.99,SE,143,14.0,24.0,46,0.00,,,0.00,meteohub,2013-03-03 23:51:00,
2013-03-03 17:56:00,68.5,46.9,29.99,SE,131,12.0,23.0,46,0.00,,,0.00,meteohub,2013-03-03 23:56:00,
2013-03-03 18:01:00,68.4,46.8,29.99,SE,139,18.0,24.0,46,0.00,,,0.00,meteohub,2013-03-04 00:01:00,
2013-03-03 18:06:00,68.4,46.8,29.99,SE,138,14.0,24.0,46,0.00,,,0.00,meteohub,2013-03-04 00:06:00,
2013-03-03 18:11:00,67.8,46.9,29.99,SSE,155,15.0,26.0,47,0.00,,,0.00,meteohub,2013-03-04 00:11:00,
2013-03-03 18:16:00,67.5,47.1,29.99,SE,133,11.0,26.0,48,0.00,,,0.00,meteohub,2013-03-04 00:16:00,
2013-03-03 18:21:00,67.1,47.3,29.99,South,183,9.0,26.0,49,0.00,,,0.00,meteohub,2013-03-04 00:21:00,
2013-03-03 18:26:00,66.7,47.5,29.99,SE,137,16.0,24.0,50,0.00,,,0.00,meteohub,2013-03-04 00:26:00,
2013-03-03 18:31:00,66.4,47.1,29.99,SE,132,15.0,22.0,50,0.00,,,0.00,meteohub,2013-03-04 00:31:00,
2013-03-03 18:36:00,66.0,47.3,29.99,SE,141,14.0,21.0,51,0.00,,,0.00,meteohub,2013-03-04 00:36:00,
2013-03-03 18:41:00,65.7,47.5,29.99,ESE,121,12.0,21.0,52,0.00,,,0.00,meteohub,2013-03-04 00:41:00,
2013-03-03 18:46:00,65.5,47.8,29.99,SSE,157,16.0,21.0,53,0.00,,,0.00,meteohub,2013-03-04 00:46:00,
2013-03-03 18:51:00,65.1,48.0,29.99,SSE,149,14.0,21.0,54,0.00,,,0.00,meteohub,2013-03-04 00:51:00,
2013-03-03 18:56:00,64.9,48.9,29.99,ESE,123,15.0,21.0,56,0.00,,,0.00,meteohub,2013-03-04 00:56:00,
2013-03-03 19:01:00,64.8,48.7,29.99,SSE,160,16.0,21.0,56,0.00,,,0.00,meteohub,2013-03-04 01:01:00,
2013-03-03 19:06:00,64.4,48.9,29.99,SE,146,9.0,21.0,57,0.00,,,0.00,meteohub,2013-03-04 01:06:00,
2013-03-03 19:11:00,64.2,49.1,29.99,SE,125,19.0,22.0,58,0.00,,,0.00,meteohub,2013-03-04 01:11:00,
2013-03-03 19:17:00,63.9,49.3,29.99,SE,141,16.0,22.0,59,0.00,,,0.00,meteohub,2013-03-04 01:17:00,
2013-03-03 19:22:00,63.9,49.6,29.99,SSE,160,11.0,22.0,60,0.00,,,0.00,meteohub,2013-03-04 01:22:00,
2013-03-03 19:27:00,63.7,50.0,29.99,ESE,118,13.0,23.0,61,0.00,,,0.00,meteohub,2013-03-04 01:27:00,
2013-03-03 19:32:00,63.5,49.8,29.99,SSE,148,12.0,23.0,61,0.00,,,0.00,meteohub,2013-03-04 01:32:00,
2013-03-03 19:37:00,63.5,50.2,29.99,SE,134,16.0,23.0,62,0.00,,,0.00,meteohub,2013-03-04 01:37:00,
2013-03-03 19:42:00,63.3,50.0,29.99,SSE,153,13.0,21.0,62,0.00,,,0.00,meteohub,2013-03-04 01:42:00,
2013-03-03 19:47:00,63.3,50.5,30.00,SE,141,11.0,20.0,63,0.00,,,0.00,meteohub,2013-03-04 01:47:00,
2013-03-03 19:52:00,63.1,50.7,30.00,SE,141,12.0,20.0,64,0.00,,,0.00,meteohub,2013-03-04 01:52:00,
2013-03-03 19:57:00,63.1,50.7,30.00,SSE,151,15.0,20.0,64,0.00,,,0.00,meteohub,2013-03-04 01:57:00,
2013-03-03 20:02:00,63.1,51.3,29.99,SE,138,16.0,20.0,65,0.00,,,0.00,meteohub,2013-03-04 02:02:00,
2013-03-03 20:07:00,63.0,51.1,29.99,SSE,152,18.0,20.0,65,0.00,,,0.00,meteohub,2013-03-04 02:07:00,
2013-03-03 20:12:00,63.0,51.1,29.99,SE,141,16.0,20.0,65,0.00,,,0.00,meteohub,2013-03-04 02:12:00,
2013-03-03 20:17:00,63.0,51.1,30.00,SE,139,11.0,20.0,65,0.00,,,0.00,meteohub,2013-03-04 02:17:00,
2013-03-03 20:22:00,63.0,51.1,30.00,SSE,152,15.0,21.0,65,0.00,,,0.00,meteohub,2013-03-04 02:22:00,
2013-03-03 20:27:00,63.0,51.1,29.99,SE,136,14.0,21.0,65,0.00,,,0.00,meteohub,2013-03-04 02:27:00,
2013-03-03 20:32:00,63.0,51.1,29.99,SE,134,19.0,21.0,65,0.00,,,0.00,meteohub,2013-03-04 02:32:00,
2013-03-03 20:37:00,63.0,51.4,29.99,ESE,118,13.0,22.0,66,0.00,,,0.00,meteohub,2013-03-04 02:37:00,
2013-03-03 20:42:00,63.0,51.4,29.99,SE,135,16.0,22.0,66,0.00,,,0.00,meteohub,2013-03-04 02:42:00,
2013-03-03 20:47:00,63.0,51.8,29.99,SSE,167,14.0,21.0,67,0.00,,,0.00,meteohub,2013-03-04 02:47:00,
2013-03-03 20:53:00,63.0,51.8,30.00,SE,141,19.0,22.0,67,0.00,,,0.00,meteohub,2013-03-04 02:53:00,
2013-03-03 20:58:00,63.0,51.8,30.00,SE,143,20.0,23.0,67,0.00,,,0.00,meteohub,2013-03-04 02:58:00,
2013-03-03 21:03:00,63.0,52.2,30.00,SE,127,15.0,23.0,68,0.00,,,0.00,meteohub,2013-03-04 03:03:00,
2013-03-03 21:08:00,63.0,52.7,30.00,SE,135,16.0,24.0,69,0.00,,,0.00,meteohub,2013-03-04 03:08:00,
2013-03-03 21:13:00,62.8,52.5,30.00,SSE,152,16.0,24.0,69,0.00,,,0.00,meteohub,2013-03-04 03:13:00,
2013-03-03 21:18:00,62.8,52.9,30.00,SSE,155,16.0,24.0,70,0.00,,,0.00,meteohub,2013-03-04 03:18:00,
2013-03-03 21:23:00,62.6,53.1,30.00,SSE,160,17.0,22.0,71,0.00,,,0.00,meteohub,2013-03-04 03:23:00,
2013-03-03 21:28:00,62.6,53.1,30.00,SE,134,11.0,22.0,71,0.00,,,0.00,meteohub,2013-03-04 03:28:00,
2013-03-03 21:33:00,62.4,52.9,30.00,SSE,148,9.0,22.0,71,0.00,,,0.00,meteohub,2013-03-04 03:33:00,
2013-03-03 21:38:00,62.4,52.9,30.00,South,169,16.0,22.0,71,0.00,,,0.00,meteohub,2013-03-04 03:38:00,
2013-03-03 21:43:00,62.2,53.1,29.99,SSE,149,16.0,22.0,72,0.00,,,0.00,meteohub,2013-03-04 03:43:00,
2013-03-03 21:49:00,62.2,53.1,29.99,South,169,12.0,21.0,72,0.00,,,0.00,meteohub,2013-03-04 03:49:00,
2013-03-03 21:54:00,62.1,52.9,29.99,South,186,10.0,21.0,72,0.00,,,0.00,meteohub,2013-03-04 03:54:00,
2013-03-03 21:59:00,62.1,52.9,29.99,SSE,152,10.0,21.0,72,0.00,,,0.00,meteohub,2013-03-04 03:59:00,
2013-03-03 22:04:00,61.9,52.7,29.99,SSE,160,14.0,21.0,72,0.00,,,0.00,meteohub,2013-03-04 04:04:00,
2013-03-03 22:09:00,61.9,53.1,29.99,SE,134,10.0,21.0,73,0.00,,,0.00,meteohub,2013-03-04 04:09:00,
2013-03-03 22:14:00,61.7,52.9,29.99,South,179,8.0,20.0,73,0.00,,,0.00,meteohub,2013-03-04 04:14:00,
2013-03-03 22:19:00,61.5,52.7,29.99,South,170,15.0,20.0,73,0.00,,,0.00,meteohub,2013-03-04 04:19:00,
2013-03-03 22:24:00,61.5,52.7,29.99,SSE,162,13.0,18.0,73,0.00,,,0.00,meteohub,2013-03-04 04:24:00,
2013-03-03 22:29:00,61.5,52.7,29.99,South,169,8.0,20.0,73,0.00,,,0.00,meteohub,2013-03-04 04:29:00,
2013-03-03 22:34:00,61.5,53.2,29.98,SSE,153,13.0,20.0,74,0.00,,,0.00,meteohub,2013-03-04 04:34:00,
2013-03-03 22:39:00,61.3,53.1,29.98,South,171,10.0,20.0,74,0.00,,,0.00,meteohub,2013-03-04 04:39:00,
2013-03-03 22:44:00,61.3,53.1,29.98,South,169,9.0,20.0,74,0.00,,,0.00,meteohub,2013-03-04 04:44:00,
2013-03-03 22:49:00,61.3,53.4,29.98,South,174,10.0,19.0,75,0.00,,,0.00,meteohub,2013-03-04 04:49:00,
2013-03-03 22:54:00,61.3,53.4,29.98,SSE,160,8.0,19.0,75,0.00,,,0.00,meteohub,2013-03-04 04:54:00,
2013-03-03 22:59:00,61.3,53.4,29.98,SSW,195,5.0,17.0,75,0.00,,,0.00,meteohub,2013-03-04 04:59:00,
2013-03-03 23:00:00,61.3,53.4,29.98,South,176,10.0,17.0,75,0.00,,,0.00,meteohub,2013-03-04 05:00:00,
2013-03-03 23:05:00,61.2,53.2,29.97,SE,143,12.0,18.0,75,0.00,,,0.00,meteohub,2013-03-04 05:05:00,
2013-03-03 23:10:00,61.2,53.2,29.97,South,170,9.0,18.0,75,0.00,,,0.00,meteohub,2013-03-04 05:10:00,
2013-03-03 23:15:00,61.2,53.6,29.97,SSE,156,15.0,17.0,76,0.00,,,0.00,meteohub,2013-03-04 05:15:00,
2013-03-03 23:20:00,61.0,53.4,29.97,SSE,162,11.0,17.0,76,0.00,,,0.00,meteohub,2013-03-04 05:20:00,
2013-03-03 23:25:00,61.0,53.4,29.97,South,190,10.0,17.0,76,0.00,,,0.00,meteohub,2013-03-04 05:25:00,
2013-03-03 23:30:00,60.8,53.2,29.97,SSE,150,9.0,16.0,76,0.00,,,0.00,meteohub,2013-03-04 05:30:00,
2013-03-03 23:35:00,60.6,53.1,29.96,SSE,149,8.0,16.0,76,0.00,,,0.00,meteohub,2013-03-04 05:35:00,
2013-03-03 23:40:00,60.6,53.1,29.96,SSE,159,8.0,16.0,76,0.00,,,0.00,meteohub,2013-03-04 05:40:00,
2013-03-03 23:45:00,60.6,53.1,29.96,SE,139,7.0,16.0,76,0.00,,,0.00,meteohub,2013-03-04 05:45:00,
2013-03-03 23:51:00,60.4,52.9,29.96,SE,141,11.0,15.0,76,0.00,,,0.00,meteohub,2013-03-04 05:51:00,
2013-03-03 23:56:00,60.4,53.2,29.96,SSE,167,9.0,15.0,77,0.00,,,0.00,meteohub,2013-03-04 05:56:00,